Overview Statistics Trail Chart Weather Telemetry Raw packets
 

This is the latest recevied weather packets stored in our database for station/object YO8RBY-2. If no packets are shown the sender has not sent any weather packets the latest 10 day(s).

<< 5 6 7 8 9 10 11 >>
Time Temp. Humidity Pressure Rain* Wind** Luminosity Snow
1788154712 23.89° C 52% 976 hPa - - 0 W/m² -
1788152888 22.22° C 57% 976 hPa - - 0 W/m² -
1788151064 20.56° C 62% 976 hPa - - 0 W/m² -
1788149240 20° C 63% 976 hPa - - 0 W/m² -
1788147416 20° C 64% 976 hPa - - 0 W/m² -
1788145592 20.56° C 61% 976 hPa - - 0 W/m² -
1788143768 20° C 63% 976 hPa - - 0 W/m² -
1788141944 20.56° C 62% 976 hPa - - 0 W/m² -
1788140119 21.11° C 61% 976 hPa - - 0 W/m² -
1788138295 20.56° C 63% 976 hPa - - 0 W/m² -
1788136471 21.11° C 61% 976 hPa - - 0 W/m² -
1788134647 21.11° C 60% 976 hPa - - 0 W/m² -
1788132823 20.56° C 64% 976 hPa - - 0 W/m² -
1788130999 21.11° C 60% 976 hPa - - 0 W/m² -
1788129175 21.67° C 59% 976 hPa - - 0 W/m² -
1788127351 22.22° C 59% 976 hPa - - 0 W/m² -
1788125526 22.22° C 57% 976 hPa - - 0 W/m² -
1788123702 22.22° C 59% 976 hPa - - 0 W/m² -
1788121878 21.67° C 61% 976 hPa - - 0 W/m² -
1788120054 22.78° C 57% 976 hPa - - 0 W/m² -
1788118230 23.89° C 54% 976 hPa - - 0 W/m² -
1788116405 24.44° C 53% 976 hPa - - 0 W/m² -
1788114581 23.89° C 55% 976 hPa - - 0 W/m² -
1788112757 23.89° C 53% 975 hPa - - 0 W/m² -
1788110933 25° C 51% 975 hPa - - 0 W/m² -

* Rain since midnight (hover to see other rain measurements)
** Current wind speed in m/s (hover to see current wind gust speed)